sensor_id;sensor_type;location;lat;lon;timestamp;temperature;humidity
5086;DHT22;4715;51.660;7.082;2022-09-27T00:00:17;11.10;99.90
5086;DHT22;4715;51.660;7.082;2022-09-27T00:02:39;11.10;99.90
5086;DHT22;4715;51.660;7.082;2022-09-27T00:05:01;11.10;99.90
5086;DHT22;4715;51.660;7.082;2022-09-27T00:07:23;11.10;99.90
5086;DHT22;4715;51.660;7.082;2022-09-27T00:09:45;11.10;99.90
5086;DHT22;4715;51.660;7.082;2022-09-27T00:12:09;11.00;99.90
5086;DHT22;4715;51.660;7.082;2022-09-27T00:14:31;11.10;99.90
5086;DHT22;4715;51.660;7.082;2022-09-27T00:16:53;11.00;99.90
5086;DHT22;4715;51.660;7.082;2022-09-27T00:19:17;11.00;99.90
5086;DHT22;4715;51.660;7.082;2022-09-27T00:21:40;11.00;99.90
5086;DHT22;4715;51.660;7.082;2022-09-27T00:24:03;11.00;99.90
5086;DHT22;4715;51.660;7.082;2022-09-27T00:26:25;11.00;99.90
5086;DHT22;4715;51.660;7.082;2022-09-27T00:28:50;11.00;99.90
5086;DHT22;4715;51.660;7.082;2022-09-27T00:31:19;11.00;99.90
5086;DHT22;4715;51.660;7.082;2022-09-27T00:33:41;10.90;99.90
5086;DHT22;4715;51.660;7.082;2022-09-27T00:36:04;10.90;99.90
5086;DHT22;4715;51.660;7.082;2022-09-27T00:38:26;10.90;99.90
5086;DHT22;4715;51.660;7.082;2022-09-27T00:40:48;10.90;99.90
5086;DHT22;4715;51.660;7.082;2022-09-27T00:43:16;10.90;99.90
5086;DHT22;4715;51.660;7.082;2022-09-27T00:45:43;10.90;99.90
5086;DHT22;4715;51.660;7.082;2022-09-27T00:48:09;10.90;99.90
5086;DHT22;4715;51.660;7.082;2022-09-27T00:50:36;10.90;99.90
5086;DHT22;4715;51.660;7.082;2022-09-27T00:53:03;10.80;99.90
5086;DHT22;4715;51.660;7.082;2022-09-27T00:55:33;10.80;99.90
5086;DHT22;4715;51.660;7.082;2022-09-27T00:57:57;10.80;99.90
5086;DHT22;4715;51.660;7.082;2022-09-27T01:00:20;10.80;99.90
5086;DHT22;4715;51.660;7.082;2022-09-27T01:02:47;10.80;99.90
5086;DHT22;4715;51.660;7.082;2022-09-27T01:05:11;10.80;99.90
5086;DHT22;4715;51.660;7.082;2022-09-27T01:07:34;10.80;99.90
5086;DHT22;4715;51.660;7.082;2022-09-27T01:09:56;10.80;99.90
5086;DHT22;4715;51.660;7.082;2022-09-27T01:12:22;10.80;99.90
5086;DHT22;4715;51.660;7.082;2022-09-27T01:15:04;10.80;99.90
5086;DHT22;4715;51.660;7.082;2022-09-27T01:17:38;10.80;99.90
5086;DHT22;4715;51.660;7.082;2022-09-27T01:23:20;10.80;99.90
5086;DHT22;4715;51.660;7.082;2022-09-27T01:25:59;10.80;99.90
5086;DHT22;4715;51.660;7.082;2022-09-27T01:28:35;10.80;99.90
5086;DHT22;4715;51.660;7.082;2022-09-27T01:31:10;10.80;99.90
5086;DHT22;4715;51.660;7.082;2022-09-27T01:33:43;10.80;99.90
5086;DHT22;4715;51.660;7.082;2022-09-27T01:36:15;10.70;99.90
5086;DHT22;4715;51.660;7.082;2022-09-27T01:38:46;10.70;99.90
5086;DHT22;4715;51.660;7.082;2022-09-27T01:41:20;10.80;99.90
5086;DHT22;4715;51.660;7.082;2022-09-27T01:43:47;10.70;99.90
5086;DHT22;4715;51.660;7.082;2022-09-27T01:46:14;10.70;99.90
5086;DHT22;4715;51.660;7.082;2022-09-27T01:48:41;10.70;99.90
5086;DHT22;4715;51.660;7.082;2022-09-27T01:51:08;10.70;99.90
5086;DHT22;4715;51.660;7.082;2022-09-27T01:53:34;10.70;99.90
5086;DHT22;4715;51.660;7.082;2022-09-27T01:56:00;10.80;99.90
5086;DHT22;4715;51.660;7.082;2022-09-27T01:58:29;10.70;99.90
5086;DHT22;4715;51.660;7.082;2022-09-27T02:00:53;10.70;99.90
5086;DHT22;4715;51.660;7.082;2022-09-27T02:03:19;10.70;99.90
5086;DHT22;4715;51.660;7.082;2022-09-27T02:05:46;10.70;99.90
5086;DHT22;4715;51.660;7.082;2022-09-27T02:08:14;10.70;99.90
5086;DHT22;4715;51.660;7.082;2022-09-27T02:10:40;10.70;99.90
5086;DHT22;4715;51.660;7.082;2022-09-27T02:13:09;10.70;99.90
5086;DHT22;4715;51.660;7.082;2022-09-27T02:15:41;10.70;99.90
5086;DHT22;4715;51.660;7.082;2022-09-27T02:18:12;10.80;99.90
5086;DHT22;4715;51.660;7.082;2022-09-27T02:20:40;10.80;99.90
5086;DHT22;4715;51.660;7.082;2022-09-27T02:23:09;10.80;99.90
5086;DHT22;4715;51.660;7.082;2022-09-27T02:25:39;10.80;99.90
5086;DHT22;4715;51.660;7.082;2022-09-27T02:28:10;10.70;99.90
5086;DHT22;4715;51.660;7.082;2022-09-27T02:30:35;10.70;99.90
5086;DHT22;4715;51.660;7.082;2022-09-27T02:32:58;10.70;99.90
5086;DHT22;4715;51.660;7.082;2022-09-27T02:35:23;10.70;99.90
5086;DHT22;4715;51.660;7.082;2022-09-27T02:37:47;10.70;99.90
5086;DHT22;4715;51.660;7.082;2022-09-27T02:40:09;10.70;99.90
5086;DHT22;4715;51.660;7.082;2022-09-27T02:42:32;10.70;99.90
5086;DHT22;4715;51.660;7.082;2022-09-27T02:44:55;10.70;99.90
5086;DHT22;4715;51.660;7.082;2022-09-27T02:47:30;10.60;99.90
5086;DHT22;4715;51.660;7.082;2022-09-27T02:50:06;10.60;99.90
5086;DHT22;4715;51.660;7.082;2022-09-27T02:52:40;10.60;99.90
5086;DHT22;4715;51.660;7.082;2022-09-27T02:55:13;10.60;99.90
5086;DHT22;4715;51.660;7.082;2022-09-27T02:57:47;10.60;99.90
5086;DHT22;4715;51.660;7.082;2022-09-27T03:00:15;10.60;99.90
5086;DHT22;4715;51.660;7.082;2022-09-27T03:02:48;10.60;99.90
5086;DHT22;4715;51.660;7.082;2022-09-27T03:05:16;10.50;99.90
5086;DHT22;4715;51.660;7.082;2022-09-27T03:07:39;10.50;99.90
5086;DHT22;4715;51.660;7.082;2022-09-27T03:10:01;10.50;99.90
5086;DHT22;4715;51.660;7.082;2022-09-27T03:12:25;10.50;99.90
5086;DHT22;4715;51.660;7.082;2022-09-27T03:14:47;10.50;99.90
5086;DHT22;4715;51.660;7.082;2022-09-27T03:17:09;10.50;99.90
5086;DHT22;4715;51.660;7.082;2022-09-27T03:19:31;10.50;99.90
5086;DHT22;4715;51.660;7.082;2022-09-27T03:21:53;10.50;99.90
5086;DHT22;4715;51.660;7.082;2022-09-27T03:24:15;10.50;99.90
5086;DHT22;4715;51.660;7.082;2022-09-27T03:26:37;10.50;99.90
5086;DHT22;4715;51.660;7.082;2022-09-27T03:29:00;10.40;99.90
5086;DHT22;4715;51.660;7.082;2022-09-27T03:31:22;10.40;99.90
5086;DHT22;4715;51.660;7.082;2022-09-27T03:33:44;10.40;99.90
5086;DHT22;4715;51.660;7.082;2022-09-27T03:36:07;10.40;99.90
5086;DHT22;4715;51.660;7.082;2022-09-27T03:38:31;10.30;99.90
5086;DHT22;4715;51.660;7.082;2022-09-27T03:40:53;10.30;99.90
5086;DHT22;4715;51.660;7.082;2022-09-27T03:43:15;10.30;99.90
5086;DHT22;4715;51.660;7.082;2022-09-27T03:45:39;10.30;99.90
5086;DHT22;4715;51.660;7.082;2022-09-27T03:48:01;10.20;99.90
5086;DHT22;4715;51.660;7.082;2022-09-27T03:50:23;10.20;99.90
5086;DHT22;4715;51.660;7.082;2022-09-27T03:52:46;10.20;99.90
5086;DHT22;4715;51.660;7.082;2022-09-27T03:55:09;10.20;99.90
5086;DHT22;4715;51.660;7.082;2022-09-27T03:57:31;10.20;99.90
5086;DHT22;4715;51.660;7.082;2022-09-27T03:59:53;10.20;99.90
5086;DHT22;4715;51.660;7.082;2022-09-27T04:02:16;10.20;99.90
5086;DHT22;4715;51.660;7.082;2022-09-27T04:04:38;10.20;99.90
5086;DHT22;4715;51.660;7.082;2022-09-27T04:07:00;10.20;99.90
5086;DHT22;4715;51.660;7.082;2022-09-27T04:09:22;10.20;99.90
5086;DHT22;4715;51.660;7.082;2022-09-27T04:11:44;10.20;99.90
5086;DHT22;4715;51.660;7.082;2022-09-27T04:14:06;10.20;99.90
5086;DHT22;4715;51.660;7.082;2022-09-27T04:16:28;10.20;99.90
5086;DHT22;4715;51.660;7.082;2022-09-27T04:18:51;10.20;99.90
5086;DHT22;4715;51.660;7.082;2022-09-27T04:21:13;10.20;99.90
5086;DHT22;4715;51.660;7.082;2022-09-27T04:23:36;10.20;99.90
5086;DHT22;4715;51.660;7.082;2022-09-27T04:25:58;10.20;99.90
5086;DHT22;4715;51.660;7.082;2022-09-27T04:28:20;10.20;99.90
5086;DHT22;4715;51.660;7.082;2022-09-27T04:30:42;10.20;99.90
5086;DHT22;4715;51.660;7.082;2022-09-27T04:33:05;10.20;99.90
5086;DHT22;4715;51.660;7.082;2022-09-27T04:35:28;10.20;99.90
5086;DHT22;4715;51.660;7.082;2022-09-27T04:38:08;10.10;99.90
5086;DHT22;4715;51.660;7.082;2022-09-27T04:40:32;10.10;99.90
5086;DHT22;4715;51.660;7.082;2022-09-27T04:42:55;10.10;99.90
5086;DHT22;4715;51.660;7.082;2022-09-27T04:45:18;10.10;99.90
5086;DHT22;4715;51.660;7.082;2022-09-27T04:47:42;10.10;99.90
5086;DHT22;4715;51.660;7.082;2022-09-27T04:50:05;10.00;99.90
5086;DHT22;4715;51.660;7.082;2022-09-27T04:52:29;10.00;99.90
5086;DHT22;4715;51.660;7.082;2022-09-27T04:54:51;10.00;99.90
5086;DHT22;4715;51.660;7.082;2022-09-27T04:57:13;9.90;99.90
5086;DHT22;4715;51.660;7.082;2022-09-27T04:59:35;9.90;99.90
5086;DHT22;4715;51.660;7.082;2022-09-27T05:01:57;10.00;99.90
5086;DHT22;4715;51.660;7.082;2022-09-27T05:04:20;10.00;99.90
5086;DHT22;4715;51.660;7.082;2022-09-27T05:06:43;10.00;99.90
5086;DHT22;4715;51.660;7.082;2022-09-27T05:09:07;9.90;99.90
5086;DHT22;4715;51.660;7.082;2022-09-27T05:11:29;9.90;99.90
5086;DHT22;4715;51.660;7.082;2022-09-27T05:13:51;9.90;99.90
5086;DHT22;4715;51.660;7.082;2022-09-27T05:16:13;9.90;99.90
5086;DHT22;4715;51.660;7.082;2022-09-27T05:18:36;9.90;99.90
5086;DHT22;4715;51.660;7.082;2022-09-27T05:20:58;9.90;99.90
5086;DHT22;4715;51.660;7.082;2022-09-27T05:23:20;9.90;99.90
5086;DHT22;4715;51.660;7.082;2022-09-27T05:25:43;9.90;99.90
5086;DHT22;4715;51.660;7.082;2022-09-27T05:28:05;9.90;99.90
5086;DHT22;4715;51.660;7.082;2022-09-27T05:30:28;9.90;99.90
5086;DHT22;4715;51.660;7.082;2022-09-27T05:32:50;9.90;99.90
5086;DHT22;4715;51.660;7.082;2022-09-27T05:35:16;9.90;99.90
5086;DHT22;4715;51.660;7.082;2022-09-27T05:37:50;9.90;99.90
5086;DHT22;4715;51.660;7.082;2022-09-27T05:40:12;9.80;99.90
5086;DHT22;4715;51.660;7.082;2022-09-27T05:42:37;9.90;99.90
5086;DHT22;4715;51.660;7.082;2022-09-27T05:44:59;9.90;99.90
5086;DHT22;4715;51.660;7.082;2022-09-27T05:47:21;9.80;99.90
5086;DHT22;4715;51.660;7.082;2022-09-27T05:49:43;9.90;99.90
5086;DHT22;4715;51.660;7.082;2022-09-27T05:52:05;9.90;99.90
5086;DHT22;4715;51.660;7.082;2022-09-27T05:54:28;9.90;99.90
5086;DHT22;4715;51.660;7.082;2022-09-27T05:56:53;9.90;99.90
5086;DHT22;4715;51.660;7.082;2022-09-27T05:59:19;9.90;99.90
5086;DHT22;4715;51.660;7.082;2022-09-27T06:01:41;9.90;99.90
5086;DHT22;4715;51.660;7.082;2022-09-27T06:04:03;9.90;99.90
5086;DHT22;4715;51.660;7.082;2022-09-27T06:06:25;9.90;99.90
5086;DHT22;4715;51.660;7.082;2022-09-27T06:08:47;9.80;99.90
5086;DHT22;4715;51.660;7.082;2022-09-27T06:11:11;9.80;99.90
5086;DHT22;4715;51.660;7.082;2022-09-27T06:13:33;9.80;99.90
5086;DHT22;4715;51.660;7.082;2022-09-27T06:15:57;9.80;99.90
5086;DHT22;4715;51.660;7.082;2022-09-27T06:18:19;9.80;99.90
5086;DHT22;4715;51.660;7.082;2022-09-27T06:20:42;9.80;99.90
5086;DHT22;4715;51.660;7.082;2022-09-27T06:23:05;9.80;99.90
5086;DHT22;4715;51.660;7.082;2022-09-27T06:25:28;9.80;99.90
5086;DHT22;4715;51.660;7.082;2022-09-27T06:27:50;9.80;99.90
5086;DHT22;4715;51.660;7.082;2022-09-27T06:30:12;9.70;99.90
5086;DHT22;4715;51.660;7.082;2022-09-27T06:32:35;9.70;99.90
5086;DHT22;4715;51.660;7.082;2022-09-27T06:34:57;9.80;99.90
5086;DHT22;4715;51.660;7.082;2022-09-27T06:37:23;9.80;99.90
5086;DHT22;4715;51.660;7.082;2022-09-27T06:39:45;9.80;99.90
5086;DHT22;4715;51.660;7.082;2022-09-27T06:42:08;9.80;99.90
5086;DHT22;4715;51.660;7.082;2022-09-27T06:44:30;9.80;99.90
5086;DHT22;4715;51.660;7.082;2022-09-27T06:46:54;9.80;99.90
5086;DHT22;4715;51.660;7.082;2022-09-27T06:49:18;9.80;99.90
5086;DHT22;4715;51.660;7.082;2022-09-27T06:51:41;9.80;99.90
5086;DHT22;4715;51.660;7.082;2022-09-27T06:54:03;9.80;99.90
5086;DHT22;4715;51.660;7.082;2022-09-27T06:56:25;9.80;99.90
5086;DHT22;4715;51.660;7.082;2022-09-27T06:58:47;9.80;99.90
5086;DHT22;4715;51.660;7.082;2022-09-27T07:01:27;9.80;99.90
5086;DHT22;4715;51.660;7.082;2022-09-27T07:03:49;9.70;99.90
5086;DHT22;4715;51.660;7.082;2022-09-27T07:06:17;9.80;99.90
5086;DHT22;4715;51.660;7.082;2022-09-27T07:08:39;9.80;99.90
5086;DHT22;4715;51.660;7.082;2022-09-27T07:11:04;9.80;99.90
5086;DHT22;4715;51.660;7.082;2022-09-27T07:13:28;9.80;99.90
5086;DHT22;4715;51.660;7.082;2022-09-27T07:15:50;9.80;99.90
5086;DHT22;4715;51.660;7.082;2022-09-27T07:18:12;9.90;99.90
5086;DHT22;4715;51.660;7.082;2022-09-27T07:20:34;9.90;99.90
5086;DHT22;4715;51.660;7.082;2022-09-27T07:22:59;9.90;99.90
5086;DHT22;4715;51.660;7.082;2022-09-27T07:25:21;9.90;99.90
5086;DHT22;4715;51.660;7.082;2022-09-27T07:27:43;10.00;99.90
5086;DHT22;4715;51.660;7.082;2022-09-27T07:30:06;10.00;99.90
5086;DHT22;4715;51.660;7.082;2022-09-27T07:32:28;10.00;99.90
5086;DHT22;4715;51.660;7.082;2022-09-27T07:34:50;10.00;99.90
5086;DHT22;4715;51.660;7.082;2022-09-27T07:37:16;10.00;99.90
5086;DHT22;4715;51.660;7.082;2022-09-27T07:39:39;10.10;99.90
5086;DHT22;4715;51.660;7.082;2022-09-27T07:42:01;10.10;99.90
5086;DHT22;4715;51.660;7.082;2022-09-27T07:44:25;10.10;99.90
5086;DHT22;4715;51.660;7.082;2022-09-27T07:46:47;10.10;99.90
5086;DHT22;4715;51.660;7.082;2022-09-27T07:49:09;10.20;99.90
5086;DHT22;4715;51.660;7.082;2022-09-27T07:51:31;10.20;99.90
5086;DHT22;4715;51.660;7.082;2022-09-27T07:53:55;10.20;99.90
5086;DHT22;4715;51.660;7.082;2022-09-27T07:56:19;10.30;99.90
5086;DHT22;4715;51.660;7.082;2022-09-27T07:58:42;10.30;99.90
5086;DHT22;4715;51.660;7.082;2022-09-27T08:01:04;10.30;99.90
5086;DHT22;4715;51.660;7.082;2022-09-27T08:03:27;10.30;99.90
5086;DHT22;4715;51.660;7.082;2022-09-27T08:05:49;10.40;99.90
5086;DHT22;4715;51.660;7.082;2022-09-27T08:08:11;10.50;99.90
5086;DHT22;4715;51.660;7.082;2022-09-27T08:10:34;10.50;99.90
5086;DHT22;4715;51.660;7.082;2022-09-27T08:12:57;10.50;99.90
5086;DHT22;4715;51.660;7.082;2022-09-27T08:15:19;10.50;99.90
5086;DHT22;4715;51.660;7.082;2022-09-27T08:17:42;10.50;99.90
5086;DHT22;4715;51.660;7.082;2022-09-27T08:20:04;10.50;99.90
5086;DHT22;4715;51.660;7.082;2022-09-27T08:22:27;10.60;99.90
5086;DHT22;4715;51.660;7.082;2022-09-27T08:24:49;10.70;99.90
5086;DHT22;4715;51.660;7.082;2022-09-27T08:27:14;10.80;99.90
5086;DHT22;4715;51.660;7.082;2022-09-27T08:29:37;10.90;99.90
5086;DHT22;4715;51.660;7.082;2022-09-27T08:32:01;11.00;99.90
5086;DHT22;4715;51.660;7.082;2022-09-27T08:34:23;11.00;99.90
5086;DHT22;4715;51.660;7.082;2022-09-27T08:36:46;11.00;99.90
5086;DHT22;4715;51.660;7.082;2022-09-27T08:39:08;11.00;99.90
5086;DHT22;4715;51.660;7.082;2022-09-27T08:41:34;11.10;99.90
5086;DHT22;4715;51.660;7.082;2022-09-27T08:44:06;11.10;99.90
5086;DHT22;4715;51.660;7.082;2022-09-27T08:46:40;11.10;99.90
5086;DHT22;4715;51.660;7.082;2022-09-27T08:49:11;11.10;99.90
5086;DHT22;4715;51.660;7.082;2022-09-27T08:51:35;11.00;99.90
5086;DHT22;4715;51.660;7.082;2022-09-27T08:54:01;11.10;99.90
5086;DHT22;4715;51.660;7.082;2022-09-27T08:56:26;11.00;99.90
5086;DHT22;4715;51.660;7.082;2022-09-27T08:58:51;11.10;99.90
5086;DHT22;4715;51.660;7.082;2022-09-27T09:01:18;11.00;99.90
5086;DHT22;4715;51.660;7.082;2022-09-27T09:03:44;11.10;99.90
5086;DHT22;4715;51.660;7.082;2022-09-27T09:06:16;11.10;99.90
5086;DHT22;4715;51.660;7.082;2022-09-27T09:08:50;11.10;99.90
5086;DHT22;4715;51.660;7.082;2022-09-27T09:11:31;11.10;99.90
5086;DHT22;4715;51.660;7.082;2022-09-27T09:14:35;11.10;99.90
5086;DHT22;4715;51.660;7.082;2022-09-27T09:17:03;11.20;99.90
5086;DHT22;4715;51.660;7.082;2022-09-27T09:19:46;11.30;99.90
5086;DHT22;4715;51.660;7.082;2022-09-27T09:22:21;11.40;99.90
5086;DHT22;4715;51.660;7.082;2022-09-27T09:24:58;11.50;99.90
5086;DHT22;4715;51.660;7.082;2022-09-27T09:27:27;11.60;99.90
5086;DHT22;4715;51.660;7.082;2022-09-27T09:30:01;11.50;99.90
5086;DHT22;4715;51.660;7.082;2022-09-27T09:32:33;11.60;99.90
5086;DHT22;4715;51.660;7.082;2022-09-27T09:35:02;11.50;99.90
5086;DHT22;4715;51.660;7.082;2022-09-27T09:37:33;11.40;99.90
5086;DHT22;4715;51.660;7.082;2022-09-27T09:39:58;11.30;99.90
5086;DHT22;4715;51.660;7.082;2022-09-27T09:42:25;11.30;99.90
5086;DHT22;4715;51.660;7.082;2022-09-27T09:44:53;11.20;99.90
5086;DHT22;4715;51.660;7.082;2022-09-27T09:47:26;11.20;99.90
5086;DHT22;4715;51.660;7.082;2022-09-27T09:49:53;11.20;99.90
5086;DHT22;4715;51.660;7.082;2022-09-27T09:52:19;11.20;99.90
5086;DHT22;4715;51.660;7.082;2022-09-27T09:54:46;11.20;99.90
5086;DHT22;4715;51.660;7.082;2022-09-27T09:57:13;11.30;99.90
5086;DHT22;4715;51.660;7.082;2022-09-27T09:59:41;11.30;99.90
5086;DHT22;4715;51.660;7.082;2022-09-27T10:02:24;11.40;99.90
5086;DHT22;4715;51.660;7.082;2022-09-27T10:04:48;11.40;99.90
5086;DHT22;4715;51.660;7.082;2022-09-27T10:07:11;11.40;99.90
5086;DHT22;4715;51.660;7.082;2022-09-27T10:09:34;11.50;99.90
5086;DHT22;4715;51.660;7.082;2022-09-27T10:11:56;11.60;99.90
5086;DHT22;4715;51.660;7.082;2022-09-27T10:14:20;11.60;99.90
5086;DHT22;4715;51.660;7.082;2022-09-27T10:16:47;11.70;99.90
5086;DHT22;4715;51.660;7.082;2022-09-27T10:19:10;11.70;99.90
5086;DHT22;4715;51.660;7.082;2022-09-27T10:21:33;11.60;99.90
5086;DHT22;4715;51.660;7.082;2022-09-27T10:24:07;11.50;99.90
5086;DHT22;4715;51.660;7.082;2022-09-27T10:26:31;11.50;99.90
5086;DHT22;4715;51.660;7.082;2022-09-27T10:28:53;11.40;99.90
5086;DHT22;4715;51.660;7.082;2022-09-27T10:31:18;11.30;99.90
5086;DHT22;4715;51.660;7.082;2022-09-27T10:33:52;11.20;99.90
5086;DHT22;4715;51.660;7.082;2022-09-27T10:36:22;11.20;99.90
5086;DHT22;4715;51.660;7.082;2022-09-27T10:38:51;11.20;99.90
5086;DHT22;4715;51.660;7.082;2022-09-27T10:41:23;11.20;99.90
5086;DHT22;4715;51.660;7.082;2022-09-27T10:43:46;11.20;99.90
5086;DHT22;4715;51.660;7.082;2022-09-27T10:46:13;11.30;99.90
5086;DHT22;4715;51.660;7.082;2022-09-27T10:48:37;11.30;99.90
5086;DHT22;4715;51.660;7.082;2022-09-27T10:51:02;11.40;99.90
5086;DHT22;4715;51.660;7.082;2022-09-27T10:53:26;11.50;99.90
5086;DHT22;4715;51.660;7.082;2022-09-27T10:55:49;11.60;99.90
5086;DHT22;4715;51.660;7.082;2022-09-27T10:58:18;11.70;99.90
5086;DHT22;4715;51.660;7.082;2022-09-27T11:00:43;11.80;99.90
5086;DHT22;4715;51.660;7.082;2022-09-27T11:03:12;11.90;99.90
5086;DHT22;4715;51.660;7.082;2022-09-27T11:05:37;11.90;99.90
5086;DHT22;4715;51.660;7.082;2022-09-27T11:08:01;11.90;99.90
5086;DHT22;4715;51.660;7.082;2022-09-27T11:10:26;12.00;99.90
5086;DHT22;4715;51.660;7.082;2022-09-27T11:13:09;12.00;99.90
5086;DHT22;4715;51.660;7.082;2022-09-27T11:15:39;12.10;99.90
5086;DHT22;4715;51.660;7.082;2022-09-27T11:18:10;12.20;99.90
5086;DHT22;4715;51.660;7.082;2022-09-27T11:20:43;12.30;99.90
5086;DHT22;4715;51.660;7.082;2022-09-27T11:23:29;12.30;99.90
5086;DHT22;4715;51.660;7.082;2022-09-27T11:26:08;12.20;99.90
5086;DHT22;4715;51.660;7.082;2022-09-27T11:28:47;12.20;99.90
5086;DHT22;4715;51.660;7.082;2022-09-27T11:31:18;12.10;99.90
5086;DHT22;4715;51.660;7.082;2022-09-27T11:33:57;12.00;99.90
5086;DHT22;4715;51.660;7.082;2022-09-27T11:36:34;11.90;99.90
5086;DHT22;4715;51.660;7.082;2022-09-27T11:39:04;11.70;99.90
5086;DHT22;4715;51.660;7.082;2022-09-27T11:41:40;11.60;99.90
5086;DHT22;4715;51.660;7.082;2022-09-27T11:44:24;11.50;99.90
5086;DHT22;4715;51.660;7.082;2022-09-27T11:47:00;11.60;99.90
5086;DHT22;4715;51.660;7.082;2022-09-27T11:49:39;11.60;99.90
5086;DHT22;4715;51.660;7.082;2022-09-27T11:52:20;11.60;99.90
5086;DHT22;4715;51.660;7.082;2022-09-27T11:54:58;11.70;99.90
5086;DHT22;4715;51.660;7.082;2022-09-27T11:57:25;11.70;99.90
5086;DHT22;4715;51.660;7.082;2022-09-27T12:00:14;11.80;99.90
5086;DHT22;4715;51.660;7.082;2022-09-27T12:03:12;11.90;99.90
5086;DHT22;4715;51.660;7.082;2022-09-27T12:05:47;11.80;99.90
5086;DHT22;4715;51.660;7.082;2022-09-27T12:08:29;11.80;99.90
5086;DHT22;4715;51.660;7.082;2022-09-27T12:10:59;11.90;99.90
5086;DHT22;4715;51.660;7.082;2022-09-27T12:13:28;12.00;99.90
5086;DHT22;4715;51.660;7.082;2022-09-27T12:15:53;12.10;99.90
5086;DHT22;4715;51.660;7.082;2022-09-27T12:18:26;12.20;99.90
5086;DHT22;4715;51.660;7.082;2022-09-27T12:20:51;12.30;99.90
5086;DHT22;4715;51.660;7.082;2022-09-27T12:23:17;12.30;99.90
5086;DHT22;4715;51.660;7.082;2022-09-27T12:25:51;12.20;99.90
5086;DHT22;4715;51.660;7.082;2022-09-27T12:28:19;12.20;99.90
5086;DHT22;4715;51.660;7.082;2022-09-27T12:30:47;12.10;99.90
5086;DHT22;4715;51.660;7.082;2022-09-27T12:33:17;12.20;99.90
5086;DHT22;4715;51.660;7.082;2022-09-27T12:35:46;12.20;99.90
5086;DHT22;4715;51.660;7.082;2022-09-27T12:38:13;12.20;99.90
5086;DHT22;4715;51.660;7.082;2022-09-27T12:40:38;12.20;99.90
5086;DHT22;4715;51.660;7.082;2022-09-27T12:43:05;12.20;99.90
5086;DHT22;4715;51.660;7.082;2022-09-27T12:45:38;12.20;99.90
5086;DHT22;4715;51.660;7.082;2022-09-27T12:48:05;12.20;99.90
5086;DHT22;4715;51.660;7.082;2022-09-27T12:50:34;12.20;99.90
5086;DHT22;4715;51.660;7.082;2022-09-27T12:53:03;12.30;99.90
5086;DHT22;4715;51.660;7.082;2022-09-27T12:55:46;12.40;99.90
5086;DHT22;4715;51.660;7.082;2022-09-27T12:58:34;12.50;99.90
5086;DHT22;4715;51.660;7.082;2022-09-27T13:01:06;12.50;99.90
5086;DHT22;4715;51.660;7.082;2022-09-27T13:03:42;12.50;99.90
5086;DHT22;4715;51.660;7.082;2022-09-27T13:06:34;12.60;99.90
5086;DHT22;4715;51.660;7.082;2022-09-27T13:12:01;12.50;99.90
5086;DHT22;4715;51.660;7.082;2022-09-27T13:14:28;12.40;99.90
5086;DHT22;4715;51.660;7.082;2022-09-27T13:16:50;12.40;99.90
5086;DHT22;4715;51.660;7.082;2022-09-27T13:19:38;12.40;99.90
5086;DHT22;4715;51.660;7.082;2022-09-27T13:22:03;12.40;99.90
5086;DHT22;4715;51.660;7.082;2022-09-27T13:24:41;12.40;99.90
5086;DHT22;4715;51.660;7.082;2022-09-27T13:27:41;12.40;99.90
5086;DHT22;4715;51.660;7.082;2022-09-27T13:33:44;12.20;99.90
5086;DHT22;4715;51.660;7.082;2022-09-27T13:36:18;12.10;99.90
5086;DHT22;4715;51.660;7.082;2022-09-27T13:38:52;12.20;99.90
5086;DHT22;4715;51.660;7.082;2022-09-27T13:41:20;12.20;99.90
5086;DHT22;4715;51.660;7.082;2022-09-27T13:43:51;12.30;99.90
5086;DHT22;4715;51.660;7.082;2022-09-27T13:46:17;12.30;99.90
5086;DHT22;4715;51.660;7.082;2022-09-27T13:48:46;12.20;99.90
5086;DHT22;4715;51.660;7.082;2022-09-27T13:51:19;12.20;99.90
5086;DHT22;4715;51.660;7.082;2022-09-27T13:53:48;12.20;99.90
5086;DHT22;4715;51.660;7.082;2022-09-27T13:56:47;12.10;99.90
5086;DHT22;4715;51.660;7.082;2022-09-27T13:59:11;12.10;99.90
5086;DHT22;4715;51.660;7.082;2022-09-27T14:01:38;12.10;99.90
5086;DHT22;4715;51.660;7.082;2022-09-27T14:04:03;12.10;99.90
5086;DHT22;4715;51.660;7.082;2022-09-27T14:06:29;12.30;99.90
5086;DHT22;4715;51.660;7.082;2022-09-27T14:08:53;12.40;99.90
5086;DHT22;4715;51.660;7.082;2022-09-27T14:11:20;12.40;99.90
5086;DHT22;4715;51.660;7.082;2022-09-27T14:13:45;12.50;99.90
5086;DHT22;4715;51.660;7.082;2022-09-27T14:16:14;12.50;99.90
5086;DHT22;4715;51.660;7.082;2022-09-27T14:18:42;12.50;99.90
5086;DHT22;4715;51.660;7.082;2022-09-27T14:21:27;12.60;99.90
5086;DHT22;4715;51.660;7.082;2022-09-27T14:23:49;12.60;99.90
5086;DHT22;4715;51.660;7.082;2022-09-27T14:26:22;12.60;99.90
5086;DHT22;4715;51.660;7.082;2022-09-27T14:28:44;12.90;99.90
5086;DHT22;4715;51.660;7.082;2022-09-27T14:31:11;13.10;99.90
5086;DHT22;4715;51.660;7.082;2022-09-27T14:33:35;13.40;99.90
5086;DHT22;4715;51.660;7.082;2022-09-27T14:35:59;13.40;99.90
5086;DHT22;4715;51.660;7.082;2022-09-27T14:38:39;13.30;99.90
5086;DHT22;4715;51.660;7.082;2022-09-27T14:41:04;13.20;99.90
5086;DHT22;4715;51.660;7.082;2022-09-27T14:43:31;13.10;99.90
5086;DHT22;4715;51.660;7.082;2022-09-27T14:45:57;13.00;99.90
5086;DHT22;4715;51.660;7.082;2022-09-27T14:48:25;12.90;99.90
5086;DHT22;4715;51.660;7.082;2022-09-27T14:50:56;12.80;99.90
5086;DHT22;4715;51.660;7.082;2022-09-27T14:53:22;12.70;99.90
5086;DHT22;4715;51.660;7.082;2022-09-27T14:55:44;12.60;99.90
5086;DHT22;4715;51.660;7.082;2022-09-27T14:58:12;12.50;99.90
5086;DHT22;4715;51.660;7.082;2022-09-27T15:00:35;12.40;99.90
5086;DHT22;4715;51.660;7.082;2022-09-27T15:02:59;12.40;99.90
5086;DHT22;4715;51.660;7.082;2022-09-27T15:05:25;12.40;99.90
5086;DHT22;4715;51.660;7.082;2022-09-27T15:07:48;12.40;99.90
5086;DHT22;4715;51.660;7.082;2022-09-27T15:10:13;12.30;99.90
5086;DHT22;4715;51.660;7.082;2022-09-27T15:12:39;12.30;99.90
5086;DHT22;4715;51.660;7.082;2022-09-27T15:15:01;12.30;99.90
5086;DHT22;4715;51.660;7.082;2022-09-27T15:17:25;12.30;99.90
5086;DHT22;4715;51.660;7.082;2022-09-27T15:19:59;12.20;99.90
5086;DHT22;4715;51.660;7.082;2022-09-27T15:22:32;12.20;99.90
5086;DHT22;4715;51.660;7.082;2022-09-27T15:25:11;12.20;99.90
5086;DHT22;4715;51.660;7.082;2022-09-27T15:27:36;12.20;99.90
5086;DHT22;4715;51.660;7.082;2022-09-27T15:29:59;12.20;99.90
5086;DHT22;4715;51.660;7.082;2022-09-27T15:32:26;12.20;99.90
5086;DHT22;4715;51.660;7.082;2022-09-27T15:34:50;12.20;99.90
5086;DHT22;4715;51.660;7.082;2022-09-27T15:37:26;12.20;99.90
5086;DHT22;4715;51.660;7.082;2022-09-27T15:39:49;12.20;99.90
5086;DHT22;4715;51.660;7.082;2022-09-27T15:42:13;12.20;99.90
5086;DHT22;4715;51.660;7.082;2022-09-27T15:44:46;12.20;99.90
5086;DHT22;4715;51.660;7.082;2022-09-27T15:50:31;12.20;99.90
5086;DHT22;4715;51.660;7.082;2022-09-27T15:52:54;12.20;99.90
5086;DHT22;4715;51.660;7.082;2022-09-27T15:55:18;12.10;99.90
5086;DHT22;4715;51.660;7.082;2022-09-27T15:57:41;12.10;99.90
5086;DHT22;4715;51.660;7.082;2022-09-27T16:00:09;12.10;99.90
5086;DHT22;4715;51.660;7.082;2022-09-27T16:02:33;12.10;99.90
5086;DHT22;4715;51.660;7.082;2022-09-27T16:04:54;12.10;99.90
5086;DHT22;4715;51.660;7.082;2022-09-27T16:07:16;12.20;99.90
5086;DHT22;4715;51.660;7.082;2022-09-27T16:09:40;12.10;99.90
5086;DHT22;4715;51.660;7.082;2022-09-27T16:12:03;12.10;99.90
5086;DHT22;4715;51.660;7.082;2022-09-27T16:14:25;12.10;99.90